Latest Weather Observations for Evans Head

IDN60801

Issued at 9:34 pm EDT Friday 19 December 2014 (issued every 30 minutes, with the page automatically refreshed every 10 minutes)

About weather observations | Map of weather stations | Latest weather observations for NSW | Other Formats
Station Details ID: 058212 Name: EVANS HEAD RAAF BOMBING RANGE AWS Lat: -29.18 Lon: 153.40 Height: 62.5 m
Data from the previous 72 hours. | See also: Recent months at Evans Head
Date/Time
EDT
Temp
°C
App
Temp
°C
Dew
Point
Rel
Hum
%
Delta-T
°C
Wind Press
QNH
hPa
Press
MSL
hPa
Rain
since 9 am
mm
Dir
 
Spd
km/h
Gust
km/h
Spd
kts
Gust
kts
19/09:30pm 22.2 21.3 19.0 82 2.0 SSE 22 32 12 17 1014.7 1014.4 0.0
19/09:00pm 22.3 21.7 18.9 81 2.2 SSE 20 28 11 15 1014.4 1014.1 0.0
19/08:30pm 22.5 22.2 19.5 83 1.9 SSE 20 28 11 15 1014.2 1013.9 0.0
19/08:00pm 22.7 22.3 19.3 81 2.2 SSE 20 32 11 17 1013.6 1013.3 0.0
19/07:30pm 22.9 21.7 19.3 80 2.3 SSE 24 32 13 17 1013.0 1012.8 0.0
19/07:00pm 23.1 21.9 19.3 79 2.4 SSE 24 32 13 17 1012.5 1012.3 0.0
19/06:30pm 23.6 22.5 19.5 78 2.6 SSE 24 35 13 19 1011.8 1011.6 0.0
19/06:00pm 24.9 24.0 19.9 74 3.2 S 24 35 13 19 1011.2 1011.0 0.0
19/05:30pm 25.3 23.7 20.1 73 3.4 SSE 28 41 15 22 1010.6 1010.3 0.0
19/05:00pm 26.2 24.9 20.7 71 3.6 SSE 28 37 15 20 1010.2 1009.9 0.0
19/04:30pm 24.9 22.8 19.7 73 3.4 SSE 30 41 16 22 1010.0 1009.7 0.0
19/04:00pm 27.2 26.0 20.0 64 4.7 SSE 26 37 14 20 1009.9 1009.6 0.0
19/03:30pm 26.9 23.7 19.5 64 4.8 SSE 35 44 19 24 1009.7 1009.4 0.0
19/03:00pm 28.6 28.0 19.8 59 5.8 SE 22 32 12 17 1009.6 1009.3 0.0
19/02:30pm 25.8 25.5 20.4 72 3.5 ESE 22 35 12 19 1009.5 1009.2 0.0
19/02:26pm 25.8 24.5 19.9 70 3.8 ESE 26 43 14 23 1009.4 1009.1 0.0
19/02:00pm 31.0 31.0 18.0 45 8.4 E 15 20 8 11 1008.6 1008.3 0.0
19/01:30pm 30.4 30.8 19.1 50 7.4 E 15 19 8 10 1009.0 1008.7 0.0
19/01:00pm 30.3 30.4 18.4 49 7.7 SE 15 20 8 11 1009.4 1009.1 0.0
19/12:30pm 31.8 30.8 15.7 37 10.0 WSW 15 24 8 13 1009.7 1009.4 0.0
19/12:00pm 30.7 29.9 15.2 39 9.6 WSW 13 22 7 12 1009.9 1009.6 0.0
19/11:30am 30.1 29.8 16.5 44 8.5 WNW 13 20 7 11 1010.0 1009.7 0.0
19/11:00am 30.1 31.4 19.2 52 7.1 WNW 11 17 6 9 1010.1 1009.8 0.0
19/10:30am 28.3 28.6 16.9 50 7.1 W 11 22 6 12 1010.3 1010.0 0.0
19/10:00am 27.7 27.5 17.5 53 6.4 NW 15 22 8 12 1010.2 1009.9 0.0
19/09:30am 27.2 29.0 19.5 62 5.0 NNW 9 17 5 9 1010.2 1009.9 0.0
19/09:00am 26.2 27.7 20.5 71 3.7 NNW 13 20 7 11 1010.2 1009.9 2.8
19/08:30am 24.7 25.9 20.0 75 3.0 NNW 13 19 7 10 1010.3 1010.0 2.8
19/08:00am 23.2 24.7 20.5 85 1.8 NNW 13 24 7 13 1010.3 1010.0 2.8
19/07:30am 22.0 23.4 21.0 94 0.7 NNW 15 30 8 16 1010.1 1009.8 2.8
19/07:00am 20.2 20.3 19.9 98 0.2 NNW 19 30 10 16 1009.9 1009.6 2.8
19/06:30am 19.5 19.2 19.2 98 0.2 NNW 19 30 10 16 1009.6 1009.3 2.8
19/06:00am 19.5 19.0 19.2 98 0.2 NNW 20 35 11 19 1009.2 1008.9 2.8
19/05:30am 19.5 19.2 19.2 98 0.2 NNW 19 32 10 17 1008.9 1008.6 2.8
19/05:00am 19.7 20.3 19.5 99 0.1 NNW 15 28 8 15 1009.3 1009.0 2.8
19/04:30am 19.9 21.0 19.7 99 0.1 NNW 13 24 7 13 1009.2 1008.9 2.8
19/04:00am 20.2 20.7 20.0 99 0.1 NNW 17 28 9 15 1009.2 1008.9 2.8
19/03:30am 20.4 20.0 20.2 99 0.1 N 22 32 12 17 1008.8 1008.5 2.6
19/03:00am 20.5 20.2 20.3 99 0.1 NNW 22 32 12 17 1008.8 1008.5 2.6
19/02:30am 21.2 21.7 21.2 100 0.0 N 20 32 11 17 1009.6 1009.3 2.6
19/02:00am 21.4 22.6 21.4 100 0.0 NNW 17 22 9 12 1010.4 1010.1 2.6
19/01:30am 21.1 23.5 20.9 99 0.1 N 9 11 5 6 1010.9 1010.7 2.6
19/01:00am 21.4 24.4 21.2 99 0.1 W 7 11 4 6 1011.3 1011.1 2.4
19/12:30am 21.4 24.0 21.2 99 0.1 NE 9 13 5 7 1011.5 1011.3 2.2
19/12:00am 21.3 23.8 21.1 99 0.1 N 9 13 5 7 1010.9 1010.7 2.0
 
Date/Time
EDT
Temp
°C
App
Temp
°C
Dew
Point
Rel
Hum
%
Delta-T
°C
Wind Press
QNH
hPa
Press
MSL
hPa
Rain
since 9 am
mm
Dir
 
Spd
km/h
Gust
km/h
Spd
kts
Gust
kts
18/11:30pm 21.2 22.9 21.0 99 0.1 N 13 19 7 10 1010.7 1010.4 1.8
18/11:00pm 21.3 24.4 21.1 99 0.1 NE 6 13 3 7 1011.2 1011.0 1.8
18/10:30pm 21.3 24.4 21.0 98 0.2 NE 6 11 3 6 1011.0 1010.8 1.8
18/10:00pm 21.2 23.6 20.9 98 0.2 NE 9 11 5 6 1010.3 1010.0 1.8
18/09:30pm 21.8 25.9 21.5 98 0.2 NNE 2 9 1 5 1009.9 1009.6 1.6
18/09:00pm 21.8 24.6 21.5 98 0.2 NW 9 13 5 7 1010.1 1009.8 1.4
18/08:30pm 21.6 23.9 21.3 98 0.2 N 11 17 6 9 1009.3 1009.0 1.4
18/08:00pm 21.9 23.8 21.4 97 0.3 N 13 24 7 13 1009.0 1008.7 1.4
18/07:30pm 22.1 25.1 21.3 95 0.5 N 7 13 4 7 1008.8 1008.5 1.4
18/07:00pm 22.1 22.5 20.7 92 0.9 NW 19 30 10 16 1008.5 1008.2 1.2
18/06:30pm 26.4 26.7 20.7 71 3.8 W 20 63 11 34 1008.0 1007.7 0.8
18/06:29pm 27.1 28.5 22.5 76 3.1 W 19 57 10 31 1008.1 1007.8 0.8
18/06:00pm 27.1 30.5 24.0 83 2.1 W 13 19 7 10 1006.4 1006.1 0.8
18/05:56pm 27.0 30.3 23.9 83 2.1 NW 13 22 7 12 1006.4 1006.1 0.8
18/05:30pm 26.3 28.6 23.4 84 2.0 N 17 24 9 13 1004.4 1004.1 0.8
18/05:00pm 26.2 27.3 23.1 83 2.1 N 22 32 12 17 1004.2 1003.9 0.8
18/04:30pm 27.4 29.6 24.0 82 2.3 N 19 28 10 15 1004.0 1003.7 0.8
18/04:00pm 28.1 29.8 23.0 74 3.5 N 19 32 10 17 1004.4 1004.1 0.8
18/03:30pm 30.0 30.5 21.9 62 5.5 NNE 22 35 12 19 1004.7 1004.4 0.8
18/03:00pm 31.2 32.9 23.0 61 5.7 NNE 19 33 10 18 1005.3 1005.0 0.8
18/02:30pm 31.5 33.8 24.1 65 5.2 NNE 19 28 10 15 1006.3 1006.0 0.8
18/02:00pm 30.9 32.6 24.1 67 4.8 N 22 35 12 19 1007.1 1006.8 0.8
18/01:30pm 31.0 33.9 25.1 71 4.2 NNE 19 32 10 17 1007.5 1007.2 0.8
18/01:00pm 30.1 33.0 26.0 78 2.9 NNE 22 37 12 20 1008.2 1007.9 0.8
18/12:30pm 28.8 32.3 25.4 82 2.4 NNE 17 30 9 16 1008.6 1008.3 0.8
18/12:00pm 28.6 32.7 25.2 82 2.4 NNE 13 22 7 12 1009.3 1009.0 0.8
18/11:30am 27.7 30.6 25.1 86 1.8 N 19 32 10 17 1009.6 1009.3 0.8
18/11:00am 25.5 28.9 25.2 98 0.2 NNE 17 26 9 14 1009.4 1009.1 0.8
18/10:30am 24.0 27.4 24.0 100 0.0 NNE 13 17 7 9 1009.8 1009.5 0.8
18/10:00am 22.5 25.7 22.3 99 0.1 NW 9 11 5 6 1010.8 1010.6 0.6
18/09:30am 22.2 25.5 21.9 98 0.2 NE 7 15 4 8 1010.4 1010.1 0.6
18/09:00am 22.4 26.0 22.1 98 0.2 SSE 6 9 3 5 1010.6 1010.3 2.2
18/08:30am 24.0 27.9 23.0 94 0.7 SSW 7 15 4 8 1010.3 1010.0 2.2
18/08:00am 23.9 28.8 23.6 98 0.2 S 4 9 2 5 1009.7 1009.4 2.2
18/07:30am 21.6 24.9 21.4 99 0.1 ENE 6 11 3 6 1009.2 1008.9 2.2
18/07:00am 21.5 23.8 21.3 99 0.1 W 11 17 6 9 1009.6 1009.3 2.2
18/06:30am 21.2 24.3 21.0 99 0.1 NW 6 7 3 4 1009.3 1009.0 2.2
18/06:00am 20.7 22.9 20.5 99 0.1 NW 9 11 5 6 1009.2 1008.9 2.2
18/05:30am 20.4 22.1 20.2 99 0.1 N 11 15 6 8 1009.2 1008.9 2.0
18/05:00am 20.8 22.7 20.6 99 0.1 N 11 17 6 9 1009.1 1008.8 2.0
18/04:30am 21.1 23.2 20.9 99 0.1 NNW 11 19 6 10 1010.0 1009.7 2.0
18/04:00am 21.4 22.0 21.1 98 0.2 W 19 37 10 20 1011.3 1011.1 1.2
18/03:30am 22.0 24.1 21.7 98 0.2 WNW 13 24 7 13 1010.3 1010.0 0.4
18/03:00am 21.9 23.2 21.6 98 0.2 E 17 24 9 13 1009.0 1008.7 0.2
18/02:30am 22.1 24.9 21.6 97 0.3 NW 9 11 5 6 1010.0 1009.7 0.2
18/02:00am 22.2 24.8 21.2 94 0.7 SW 9 15 5 8 1009.8 1009.5 0.2
18/01:30am 22.6 24.9 22.1 97 0.3 SW 13 19 7 10 1010.4 1010.1 0.2
18/01:00am 22.9 25.0 22.4 97 0.3 SSW 15 22 8 12 1010.4 1010.1 0.2
18/12:30am 23.6 26.3 22.8 95 0.5 ESE 13 22 7 12 1010.5 1010.2 0.2
18/12:00am 23.4 25.4 22.9 97 0.3 ESE 17 26 9 14 1009.9 1009.6 0.2
 
Date/Time
EDT
Temp
°C
App
Temp
°C
Dew
Point
Rel
Hum
%
Delta-T
°C
Wind Press
QNH
hPa
Press
MSL
hPa
Rain
since 9 am
mm
Dir
 
Spd
km/h
Gust
km/h
Spd
kts
Gust
kts
17/11:30pm 23.1 24.4 22.6 97 0.3 ESE 20 28 11 15 1009.5 1009.2 0.2
17/11:00pm 22.6 23.3 22.3 98 0.2 SSE 22 33 12 18 1009.9 1009.6 0.2
17/10:30pm 22.7 22.2 22.2 97 0.3 SSE 28 37 15 20 1009.9 1009.6 0.2
17/10:00pm 23.4 22.5 22.9 97 0.3 SSE 32 46 17 25 1009.8 1009.5 0.2
17/09:34pm 23.8 22.2 23.3 97 0.3 SSE 37 56 20 30 1009.2 1008.9 0.2
17/09:30pm 23.8 22.6 23.3 97 0.3 SSE 35 50 19 27 1009.2 1008.9 0.2
17/09:09pm 23.8 23.7 23.5 98 0.2 SSE 30 48 16 26 1008.8 1008.5 0.2
17/09:00pm 23.7 23.9 23.4 98 0.2 SSE 28 39 15 21 1008.5 1008.2 0.2
17/08:30pm 23.9 23.8 23.6 98 0.2 SSE 30 41 16 22 1007.4 1007.1 0.2
17/08:00pm 23.8 23.3 23.5 98 0.2 SSE 32 44 17 24 1006.9 1006.6 0.2
17/07:41pm 24.0 23.6 23.7 98 0.2 SSE 32 50 17 27 1006.3 1006.0 0.2
17/07:30pm 24.1 23.2 23.8 98 0.2 S 35 50 19 27 1005.9 1005.6 0.2
17/07:14pm 24.3 23.5 24.0 98 0.2 S 35 54 19 29 1005.4 1005.1 0.2
17/07:00pm 24.5 24.4 24.2 98 0.2 S 32 44 17 24 1005.2 1004.9 0.2
17/06:30pm 24.9 25.3 24.4 97 0.3 S 30 41 16 22 1004.8 1004.5 0.2
17/06:00pm 27.0 27.3 20.8 69 4.1 SE 20 46 11 25 1003.7 1003.4 0.2
17/05:57pm 28.2 29.2 21.0 65 4.8 N 17 46 9 25 1003.6 1003.3 0.2
17/05:30pm 32.1 33.1 21.0 52 7.5 NNE 17 24 9 13 1002.7 1002.4 0.2
17/05:00pm 32.1 33.0 21.6 53 7.1 N 19 26 10 14 1002.5 1002.2 0.2
17/04:30pm 30.3 32.9 21.9 60 5.7 N 11 17 6 9 1002.5 1002.2 0.2
17/04:00pm 31.8 34.5 22.8 59 6.2 N 13 19 7 10 1002.7 1002.4 0.2
17/03:30pm 33.6 34.4 20.7 46 8.7 NNE 17 24 9 13 1002.9 1002.6 0.2
17/03:00pm 31.8 34.2 21.6 54 6.9 ENE 11 15 6 8 1003.4 1003.1 0.0
17/02:30pm 34.7 35.9 21.4 46 9.0 E 17 24 9 13 1003.2 1002.9 0.0
17/02:00pm 34.7 36.1 20.3 43 9.7 E 13 17 7 9 1003.5 1003.2 0.0
17/01:30pm 37.6 38.9 17.1 30 13.3 W 6 19 3 10 1003.7 1003.4 0.0
17/01:00pm 36.8 37.5 17.9 33 12.4 W 11 20 6 11 1004.0 1003.7 0.0
17/12:30pm 36.1 37.9 19.5 37 11.1 NW 9 26 5 14 1004.1 1003.8 0.0
17/12:00pm 34.5 36.6 20.1 43 9.6 WNW 9 17 5 9 1004.4 1004.1 0.0
17/11:30am 34.2 37.2 21.3 47 8.7 NW 7 19 4 10 1004.6 1004.3 0.0
17/11:00am 32.4 33.9 20.6 49 7.9 NW 13 20 7 11 1004.7 1004.4 0.0
17/10:30am 31.2 32.2 20.2 52 7.3 NW 15 24 8 13 1004.7 1004.4 0.0
17/10:00am 29.9 32.1 22.6 65 5.0 NW 15 32 8 17 1004.9 1004.6 0.0
17/09:30am 28.8 31.2 23.0 71 4.0 NW 15 24 8 13 1005.0 1004.7 0.0
17/09:00am 27.3 29.2 22.7 76 3.1 NW 17 26 9 14 1005.1 1004.8 4.6
17/08:30am 25.5 28.3 23.0 86 1.7 NNW 13 22 7 12 1005.4 1005.1 4.6
17/08:00am 24.1 27.6 23.6 97 0.3 NNW 11 17 6 9 1005.5 1005.2 4.6
17/07:30am 22.8 25.7 22.5 98 0.2 NNW 11 17 6 9 1005.2 1004.9 4.6
17/07:00am 21.7 24.1 21.5 99 0.1 NNW 11 19 6 10 1004.9 1004.6 4.6
17/06:30am 20.9 23.0 20.9 100 0.0 NW 11 17 6 9 1004.8 1004.5 4.6
17/06:00am 20.5 22.4 20.5 100 0.0 NW 11 22 6 12 1004.4 1004.1 4.6
17/05:30am 20.4 22.2 20.4 100 0.0 NW 11 20 6 11 1004.0 1003.7 4.6
17/05:00am 20.3 21.7 20.3 100 0.0 NW 13 24 7 13 1003.8 1003.5 4.6
17/04:30am 20.4 22.2 20.4 100 0.0 NNW 11 17 6 9 1003.7 1003.4 4.6
17/04:00am 20.5 21.2 20.5 100 0.0 NNW 17 28 9 15 1003.5 1003.2 4.6
17/03:30am 20.8 21.1 20.8 100 0.0 NNW 20 33 11 18 1003.6 1003.3 4.6
17/03:00am 20.9 21.4 20.9 100 0.0 N 19 28 10 15 1004.5 1004.2 4.6
17/02:30am 21.0 22.4 21.0 100 0.0 N 15 20 8 11 1005.1 1004.8 4.6
17/02:00am 21.0 23.1 21.0 100 0.0 N 11 17 6 9 1005.3 1005.0 4.4
17/01:30am 21.1 22.5 21.1 100 0.0 NNW 15 20 8 11 1006.1 1005.8 4.2
17/01:00am 21.2 21.6 21.0 99 0.1 NNW 20 30 11 16 1006.3 1006.0 4.2
17/12:30am 21.7 24.5 21.5 99 0.1 NNW 9 13 5 7 1007.7 1007.4 4.2
17/12:00am 22.1 24.7 21.9 99 0.1 NNE 11 17 6 9 1007.5 1007.2 4.0
 
Date/Time
EDT
Temp
°C
App
Temp
°C
Dew
Point
Rel
Hum
%
Delta-T
°C
Wind Press
QNH
hPa
Press
MSL
hPa
Rain
since 9 am
mm
Dir
 
Spd
km/h
Gust
km/h
Spd
kts
Gust
kts
16/11:30pm 21.8 22.1 21.6 99 0.1 E 22 30 12 16 1006.8 1006.5 4.0
16/11:00pm 21.1 21.5 20.9 99 0.1 ESE 20 32 11 17 1007.1 1006.8 4.0
16/10:53pm 21.1 23.2 20.9 99 0.1 S 11 28 6 15 1007.4 1007.1 3.4
16/10:30pm 21.8 24.6 21.5 98 0.2 WSW 9 17 5 9 1009.5 1009.2 1.4
16/10:00pm 23.1 22.9 20.6 86 1.6 SW 22 39 12 21 1008.6 1008.3 0.0
16/09:44pm 23.2 24.8 21.5 90 1.1 N 15 32 8 17 1007.6 1007.3 0.0

Other Formats:

Comma delimited format used in spreadsheet applications
http://www.bom.gov.au/fwo/IDN60801/IDN60801.94598.axf

JavaScript Object Notation format (JSON) in row-major order
http://www.bom.gov.au/fwo/IDN60801/IDN60801.94598.json